Louis, Missouri
Current Conditions -  °F | °C
As of 3:53 AM on Sunday 23 Nov 2014 (Local Time) from KCPS Reporting Station
Clear Clear  
Wind Chill: 50°   Ceiling: Unl
Heat Index: 50°   Visibility: 10mi
Dew Point: 42°   Wind: 7mph
Humidity: 74%   Direction: 140°SE
Pressure: 29.77"   Gusts: NA
Location:  38.6578°N, 90.2474°W
Report Text: KCPS 230953Z AUTO 14006KT 10SM CLR 10/06 A2977 RMK AO2 SLP079 T01000056 TSNO
Loading
Personal Weather Stations






























Interactive Weather Map New forecast layout! Learn more

10-Day Weather Forecast

Advertisements
Track Severe Weather on mobile